KPDT

Eastern Oregon Regional Airport

Airport
ICAO code
KPDT
IATA Code
PDT
Summary
ICAO Region
NAM
ICAO Territory
Location

Pendleton, Oregon

Serving
Pendleton
Elevation
1497 ft
Coordinates
45° 41' 43" N , 118° 50' 29" W
KCC
Metar
KPDT 301553Z 21006KT 10SM CLR 12/02 A3033 RMK AO2 SLP267 T01220017

Eastern Oregon Regional Airport at Pendleton is a public use airport located 3 nm northwest of Pendleton, in Umatilla County, Oregon.

 

Runways

Designator Length Width Surface Rops
16/34 1323 18 ASP Yes/Yes
11/29 1701 30 ASP Yes/Yes
7/25 1920 46 ASP Yes/Yes

Airport map

Aerial View

SKYbrary Partners:

Safety knowledge contributed by: